createdAt,value
2023-10-06T00:01:01.151Z,94.98
2023-10-06T00:03:34.272Z,94.99
2023-10-06T00:06:06.236Z,95.57
2023-10-06T00:08:36.461Z,95.60
2023-10-06T00:11:13.253Z,95.23
2023-10-06T00:13:53.474Z,95.75
2023-10-06T00:16:21.599Z,96.02
2023-10-06T00:18:51.041Z,95.62
2023-10-06T00:21:22.648Z,96.13
2023-10-06T00:23:50.748Z,96.24
2023-10-06T00:26:21.887Z,96.31
2023-10-06T00:28:54.465Z,95.94
2023-10-06T00:31:23.307Z,95.41
2023-10-06T00:33:51.499Z,95.81
2023-10-06T00:36:19.614Z,96.12
2023-10-06T00:38:51.794Z,96.41
2023-10-06T00:41:21.345Z,96.06
2023-10-06T00:43:51.583Z,96.62
2023-10-06T00:46:21.237Z,96.31
2023-10-06T00:48:54.384Z,95.50
2023-10-06T00:51:26.695Z,94.69
2023-10-06T00:53:57.546Z,94.86
2023-10-06T00:56:27.128Z,96.40
2023-10-06T00:58:55.589Z,96.26
2023-10-06T01:01:25.036Z,96.50
2023-10-06T01:04:02.138Z,95.61
2023-10-06T01:06:36.977Z,95.64
2023-10-06T01:09:15.524Z,95.35
2023-10-06T01:11:47.030Z,93.52
2023-10-06T01:14:23.149Z,94.27
2023-10-06T01:16:54.660Z,93.01
2023-10-06T01:19:28.547Z,94.16
2023-10-06T01:22:00.505Z,94.14
2023-10-06T01:24:30.956Z,95.03
2023-10-06T01:27:06.850Z,94.32
2023-10-06T01:29:36.701Z,94.56
2023-10-06T01:32:06.196Z,94.42
2023-10-06T01:34:39.051Z,93.84
2023-10-06T01:37:08.944Z,93.86
2023-10-06T01:39:38.923Z,95.10
2023-10-06T01:42:10.087Z,95.26
2023-10-06T01:44:38.553Z,94.74
2023-10-06T01:47:06.896Z,95.08
2023-10-06T01:49:36.886Z,96.22
2023-10-06T01:52:10.322Z,95.79
2023-10-06T01:54:40.548Z,97.15
2023-10-06T01:57:11.285Z,96.47
2023-10-06T01:59:39.777Z,96.38
2023-10-06T02:02:14.721Z,96.64
2023-10-06T02:04:46.659Z,96.75
2023-10-06T02:07:18.981Z,97.27
2023-10-06T02:09:50.791Z,97.18
2023-10-06T02:12:19.461Z,96.82
2023-10-06T02:14:50.112Z,95.45
2023-10-06T02:17:18.617Z,96.32
2023-10-06T02:19:47.110Z,96.16
2023-10-06T02:22:15.395Z,96.56
2023-10-06T02:24:44.029Z,96.23
2023-10-06T02:27:13.504Z,96.95
2023-10-06T02:29:44.852Z,96.37
2023-10-06T02:32:14.727Z,97.24
2023-10-06T02:34:46.350Z,97.03
2023-10-06T02:37:14.447Z,97.06
2023-10-06T02:39:44.646Z,96.83
2023-10-06T02:42:15.980Z,95.88
2023-10-06T02:44:44.084Z,96.61
2023-10-06T02:47:13.259Z,96.15
2023-10-06T02:49:49.504Z,95.43
2023-10-06T02:52:21.713Z,94.86
2023-10-06T02:54:59.759Z,94.73
2023-10-06T02:57:29.373Z,94.26
2023-10-06T03:00:18.444Z,94.06
2023-10-06T03:02:46.594Z,93.67
2023-10-06T03:05:15.209Z,94.25
2023-10-06T03:07:46.972Z,93.64
2023-10-06T03:10:19.099Z,95.11
2023-10-06T03:12:50.636Z,96.52
2023-10-06T03:15:29.610Z,96.85
2023-10-06T03:17:59.853Z,97.60
2023-10-06T03:20:31.291Z,97.64
2023-10-06T03:23:01.786Z,98.19
2023-10-06T03:25:36.718Z,98.09
2023-10-06T03:28:06.938Z,99.23
2023-10-06T03:30:39.013Z,98.72
2023-10-06T03:33:12.896Z,98.44
2023-10-06T03:35:47.159Z,97.53
2023-10-06T03:38:37.269Z,96.56
2023-10-06T03:41:21.629Z,97.61
2023-10-06T03:43:52.840Z,98.16
2023-10-06T03:46:21.854Z,98.97
2023-10-06T03:48:51.242Z,99.44
2023-10-06T03:51:23.882Z,99.11
2023-10-06T03:53:53.147Z,99.40
2023-10-06T03:56:22.698Z,99.71
2023-10-06T03:58:56.834Z,100.00
2023-10-06T04:01:28.298Z,99.92
2023-10-06T04:03:59.820Z,99.50
2023-10-06T04:06:28.774Z,99.61
2023-10-06T04:08:58.631Z,99.27
2023-10-06T04:11:31.143Z,99.84
2023-10-06T04:14:00.586Z,99.98
2023-10-06T04:16:28.533Z,99.68
2023-10-06T04:18:56.627Z,99.97
2023-10-06T04:21:25.509Z,99.28
2023-10-06T04:23:54.133Z,98.61
2023-10-06T04:26:23.937Z,97.63
2023-10-06T04:28:52.238Z,96.61
2023-10-06T04:31:21.635Z,96.69
2023-10-06T04:33:51.888Z,95.60
2023-10-06T04:36:22.199Z,96.97
2023-10-06T04:38:51.117Z,97.98
2023-10-06T04:43:49.365Z,97.14
2023-10-06T04:46:17.352Z,96.07
2023-10-06T04:48:49.066Z,96.16
2023-10-06T04:51:16.989Z,97.67
2023-10-06T04:53:47.038Z,97.45
2023-10-06T04:56:15.436Z,97.79
2023-10-06T04:58:43.798Z,97.98
2023-10-06T05:01:13.171Z,97.78
2023-10-06T05:03:45.056Z,98.18
2023-10-06T05:06:17.674Z,97.44
2023-10-06T05:08:48.591Z,97.87
2023-10-06T05:11:18.264Z,99.11
2023-10-06T05:13:48.985Z,99.95
2023-10-06T05:16:19.973Z,99.52
2023-10-06T05:18:48.849Z,100.00
2023-10-06T05:21:20.365Z,100.00
2023-10-06T05:23:48.652Z,100.00
2023-10-06T05:26:17.703Z,100.00
2023-10-06T05:28:46.285Z,100.00
2023-10-06T05:31:14.589Z,100.00
2023-10-06T05:33:42.764Z,100.00
2023-10-06T05:36:12.254Z,100.00
2023-10-06T05:38:42.354Z,100.00
2023-10-06T05:41:13.320Z,100.00
2023-10-06T05:43:45.338Z,99.71
2023-10-06T05:46:13.558Z,99.42
2023-10-06T05:48:43.140Z,99.01
2023-10-06T05:51:12.187Z,97.30
2023-10-06T05:53:45.282Z,96.55
2023-10-06T05:56:13.938Z,96.06
2023-10-06T05:58:42.847Z,96.56
2023-10-06T06:01:14.753Z,95.64
2023-10-06T06:03:47.912Z,95.87
2023-10-06T06:06:17.470Z,95.40
2023-10-06T06:08:49.025Z,95.47
2023-10-06T06:11:18.251Z,96.73
2023-10-06T06:13:55.552Z,95.64
2023-10-06T06:16:27.547Z,95.01
2023-10-06T06:18:55.600Z,93.84
2023-10-06T06:21:26.125Z,93.50
2023-10-06T06:23:58.899Z,93.23
2023-10-06T06:26:27.178Z,92.00
2023-10-06T06:28:55.249Z,91.37
2023-10-06T06:31:23.588Z,89.90
2023-10-06T06:33:57.931Z,89.37
2023-10-06T06:36:26.559Z,88.30
2023-10-06T06:38:56.045Z,89.45
2023-10-06T06:41:24.302Z,89.61
2023-10-06T06:43:59.239Z,89.02
2023-10-06T06:46:31.031Z,87.91
2023-10-06T06:49:00.774Z,85.82
2023-10-06T06:51:31.582Z,85.83
2023-10-06T06:54:01.056Z,85.06
2023-10-06T06:56:30.506Z,82.62
2023-10-06T06:59:00.870Z,81.49
2023-10-06T07:01:29.534Z,80.15
2023-10-06T07:04:01.975Z,80.25
2023-10-06T07:06:32.234Z,80.00
2023-10-06T07:09:03.146Z,79.75
2023-10-06T07:11:31.171Z,77.80
2023-10-06T07:13:59.349Z,77.24
2023-10-06T07:16:27.608Z,76.70
2023-10-06T07:18:55.819Z,77.48
2023-10-06T07:21:24.641Z,74.87
2023-10-06T07:23:55.666Z,73.85
2023-10-06T07:26:25.088Z,75.76
2023-10-06T07:28:54.733Z,76.19
2023-10-06T07:31:23.240Z,75.92
2023-10-06T07:33:53.120Z,75.61
2023-10-06T07:36:21.686Z,73.96
2023-10-06T07:38:50.449Z,75.50
2023-10-06T07:41:21.693Z,74.82
2023-10-06T07:43:51.091Z,74.40
2023-10-06T07:46:19.544Z,73.88
2023-10-06T07:48:48.388Z,73.05
2023-10-06T07:51:17.501Z,74.56
2023-10-06T07:53:45.768Z,75.89
2023-10-06T07:56:15.714Z,75.14
2023-10-06T07:58:44.654Z,75.52
2023-10-06T08:01:15.178Z,75.03
2023-10-06T08:03:43.558Z,75.06
2023-10-06T08:06:12.900Z,75.72
2023-10-06T08:08:40.889Z,74.99
2023-10-06T08:11:10.535Z,74.84
2023-10-06T08:13:40.002Z,74.02
2023-10-06T08:16:08.901Z,74.07
2023-10-06T08:18:38.299Z,73.34
2023-10-06T08:21:06.804Z,72.71
2023-10-06T08:23:36.459Z,72.07
2023-10-06T08:26:09.624Z,71.40
2023-10-06T08:28:38.954Z,71.91
2023-10-06T08:31:06.869Z,71.40
2023-10-06T08:33:37.414Z,71.78
2023-10-06T08:36:09.668Z,71.59
2023-10-06T08:38:37.661Z,70.99
2023-10-06T08:41:06.791Z,70.46
2023-10-06T08:43:40.245Z,70.82
2023-10-06T08:46:09.491Z,71.42
2023-10-06T08:48:39.759Z,71.25
2023-10-06T08:51:12.418Z,71.81
2023-10-06T08:53:43.092Z,71.79
2023-10-06T08:56:16.114Z,70.97
2023-10-06T08:58:45.456Z,72.91
2023-10-06T09:01:15.363Z,71.93
2023-10-06T09:03:43.441Z,72.18
2023-10-06T09:06:15.289Z,72.24
2023-10-06T09:08:44.815Z,72.66
2023-10-06T09:11:13.211Z,72.13
2023-10-06T09:13:42.914Z,71.10
2023-10-06T09:16:12.925Z,70.96
2023-10-06T09:18:44.549Z,70.99
2023-10-06T09:21:20.886Z,72.03
2023-10-06T09:23:52.875Z,71.60
2023-10-06T09:26:30.752Z,69.52
2023-10-06T09:29:05.782Z,70.78
2023-10-06T09:31:40.336Z,72.18
2023-10-06T09:34:16.107Z,69.80
2023-10-06T09:36:47.522Z,71.66
2023-10-06T09:39:27.956Z,70.06
2023-10-06T09:41:56.199Z,71.00
2023-10-06T09:44:25.879Z,70.11
2023-10-06T09:46:59.355Z,70.18
2023-10-06T09:49:32.076Z,70.97
2023-10-06T09:52:08.915Z,69.07
2023-10-06T09:54:39.665Z,68.53
2023-10-06T09:57:13.891Z,68.43
2023-10-06T09:59:42.208Z,68.79
2023-10-06T10:02:15.512Z,70.10
2023-10-06T10:04:47.681Z,70.46
2023-10-06T10:07:19.319Z,70.01
2023-10-06T10:09:47.592Z,68.75
2023-10-06T10:12:28.355Z,68.22
2023-10-06T10:15:05.326Z,66.55
2023-10-06T10:17:41.258Z,66.63
2023-10-06T10:20:10.640Z,68.46
2023-10-06T10:22:42.098Z,67.19
2023-10-06T10:27:46.017Z,66.24
2023-10-06T10:30:15.796Z,67.84
2023-10-06T10:32:44.618Z,68.02
2023-10-06T10:35:18.387Z,67.83
2023-10-06T10:38:05.820Z,67.18
2023-10-06T10:40:50.382Z,66.96
2023-10-06T10:43:23.168Z,67.13
2023-10-06T10:45:54.897Z,67.58
2023-10-06T10:48:23.856Z,66.58
2023-10-06T10:50:59.839Z,67.35
2023-10-06T10:53:34.850Z,67.85
2023-10-06T10:56:05.689Z,66.78
2023-10-06T10:58:56.241Z,66.86
2023-10-06T11:01:27.555Z,67.14
2023-10-06T11:04:19.275Z,68.15
2023-10-06T11:06:49.577Z,67.17
2023-10-06T11:09:31.473Z,65.76
2023-10-06T11:12:29.344Z,64.85
2023-10-06T11:15:14.831Z,64.87
2023-10-06T11:17:45.400Z,64.22
2023-10-06T11:20:17.096Z,64.56
2023-10-06T11:22:57.128Z,62.44
2023-10-06T11:25:30.628Z,63.24
2023-10-06T11:28:09.509Z,63.98
2023-10-06T11:30:45.793Z,63.69
2023-10-06T11:33:24.210Z,63.90
2023-10-06T11:35:59.637Z,63.54
2023-10-06T11:38:31.161Z,63.52
2023-10-06T11:41:00.718Z,64.05
2023-10-06T11:43:31.863Z,62.52
2023-10-06T11:46:06.165Z,63.50
2023-10-06T11:48:43.749Z,62.80
2023-10-06T11:51:23.741Z,61.91
2023-10-06T11:54:12.919Z,61.29
2023-10-06T11:56:51.119Z,60.73
2023-10-06T11:59:23.930Z,62.79
2023-10-06T12:01:52.625Z,61.07
2023-10-06T12:04:31.800Z,61.07
2023-10-06T12:07:06.490Z,61.10
2023-10-06T12:09:35.763Z,61.93
2023-10-06T12:12:09.295Z,62.67
2023-10-06T12:14:40.647Z,63.34
2023-10-06T12:17:08.816Z,62.40
2023-10-06T12:19:38.381Z,61.96
2023-10-06T12:22:06.463Z,62.99
2023-10-06T12:24:34.429Z,62.48
2023-10-06T12:27:06.428Z,60.41
2023-10-06T12:29:34.412Z,61.60
2023-10-06T12:32:05.218Z,59.72
2023-10-06T12:34:37.632Z,60.92
2023-10-06T12:37:08.633Z,61.04
2023-10-06T12:39:37.210Z,61.59
2023-10-06T12:42:07.410Z,62.14
2023-10-06T12:44:40.776Z,61.75
2023-10-06T12:47:13.462Z,61.94
2023-10-06T12:49:45.411Z,61.60
2023-10-06T12:52:17.592Z,61.53
2023-10-06T12:57:26.131Z,61.59
2023-10-06T13:00:04.560Z,62.29
2023-10-06T13:02:36.606Z,62.99
2023-10-06T13:05:18.659Z,62.69
2023-10-06T13:07:48.653Z,62.48
2023-10-06T13:10:23.204Z,63.32
2023-10-06T13:12:53.041Z,63.36
2023-10-06T13:15:21.911Z,63.59
2023-10-06T13:17:51.009Z,63.99
2023-10-06T13:20:19.317Z,64.91
2023-10-06T13:22:49.752Z,64.68
2023-10-06T13:25:19.314Z,64.77
2023-10-06T13:27:49.872Z,65.92
2023-10-06T13:30:21.260Z,65.37
2023-10-06T13:32:53.111Z,64.92
2023-10-06T13:35:21.983Z,65.35
2023-10-06T13:37:50.258Z,65.78
2023-10-06T13:40:20.247Z,64.71
2023-10-06T13:42:49.073Z,62.94
2023-10-06T13:45:21.809Z,63.42
2023-10-06T13:47:51.767Z,65.67
2023-10-06T13:50:20.334Z,64.82
2023-10-06T13:52:50.595Z,65.22
2023-10-06T13:55:20.427Z,65.03
2023-10-06T13:57:52.767Z,64.59
2023-10-06T14:00:30.245Z,64.88
2023-10-06T14:03:01.433Z,65.25
2023-10-06T14:05:33.813Z,64.22
2023-10-06T14:08:04.897Z,64.85
2023-10-06T14:10:36.855Z,65.29
2023-10-06T14:13:12.816Z,65.86
2023-10-06T14:15:46.225Z,65.81
2023-10-06T14:18:17.416Z,66.28
2023-10-06T14:20:47.398Z,66.52
2023-10-06T14:23:16.142Z,66.14
2023-10-06T14:25:46.179Z,67.00
2023-10-06T14:28:14.712Z,67.02
2023-10-06T14:30:45.034Z,67.94
2023-10-06T14:33:18.795Z,67.68
2023-10-06T14:35:53.754Z,67.59
2023-10-06T14:38:40.601Z,67.97
2023-10-06T14:41:27.615Z,68.01
2023-10-06T14:44:14.982Z,67.75
2023-10-06T14:46:50.856Z,68.33
2023-10-06T14:49:24.488Z,67.62
2023-10-06T14:51:55.248Z,68.44
2023-10-06T14:54:26.814Z,69.23
2023-10-06T14:56:57.215Z,68.29
2023-10-06T14:59:25.616Z,68.77
2023-10-06T15:01:56.024Z,68.83
2023-10-06T15:04:24.200Z,69.25
2023-10-06T15:06:53.705Z,69.02
2023-10-06T15:09:22.440Z,68.44
2023-10-06T15:11:51.544Z,69.11
2023-10-06T15:14:25.235Z,68.96
2023-10-06T15:16:56.718Z,68.92
2023-10-06T15:19:27.454Z,69.25
2023-10-06T15:21:57.977Z,69.29
2023-10-06T15:24:26.005Z,70.14
2023-10-06T15:26:54.935Z,69.10
2023-10-06T15:29:25.942Z,70.39
2023-10-06T15:31:57.060Z,69.71
2023-10-06T15:34:27.833Z,69.51
2023-10-06T15:36:56.038Z,70.46
2023-10-06T15:39:24.903Z,70.01
2023-10-06T15:41:52.904Z,70.87
2023-10-06T15:44:21.743Z,70.62
2023-10-06T15:46:49.751Z,69.28
2023-10-06T15:49:20.680Z,69.77
2023-10-06T15:51:51.112Z,70.49
2023-10-06T15:54:19.152Z,70.55
2023-10-06T15:56:48.086Z,70.35
2023-10-06T15:59:18.793Z,70.30
2023-10-06T16:01:48.439Z,71.51
2023-10-06T16:04:18.081Z,70.68
2023-10-06T16:06:48.773Z,71.24
2023-10-06T16:09:18.308Z,70.88
2023-10-06T16:11:47.144Z,70.55
2023-10-06T16:14:17.111Z,71.19
2023-10-06T16:16:47.354Z,70.12
2023-10-06T16:19:15.630Z,71.22
2023-10-06T16:21:44.367Z,71.60
2023-10-06T16:24:15.235Z,71.59
2023-10-06T16:26:43.953Z,71.28
2023-10-06T16:32:01.542Z,71.03
2023-10-06T16:34:30.354Z,70.47
2023-10-06T16:36:58.246Z,71.77
2023-10-06T16:39:27.492Z,72.42
2023-10-06T16:41:55.629Z,72.41
2023-10-06T16:44:24.604Z,71.73
2023-10-06T16:46:52.656Z,71.59
2023-10-06T16:49:20.553Z,72.74
2023-10-06T16:51:49.082Z,73.04
2023-10-06T16:54:17.212Z,73.57
2023-10-06T16:56:46.862Z,72.46
2023-10-06T16:59:15.393Z,72.73
2023-10-06T17:01:44.404Z,73.35
2023-10-06T17:04:16.157Z,72.77
2023-10-06T17:06:47.038Z,72.13
2023-10-06T17:09:19.779Z,72.48
2023-10-06T17:11:50.073Z,73.11
2023-10-06T17:14:18.135Z,72.83
2023-10-06T17:16:46.260Z,74.02
2023-10-06T17:19:14.744Z,73.75
2023-10-06T17:21:43.389Z,73.67
2023-10-06T17:24:12.470Z,73.13
2023-10-06T17:26:41.120Z,73.30
2023-10-06T17:29:12.036Z,73.62
2023-10-06T17:31:40.260Z,74.30
2023-10-06T17:34:08.295Z,73.54
2023-10-06T17:36:36.163Z,74.01
2023-10-06T17:39:04.612Z,75.27
2023-10-06T17:41:32.624Z,75.37
2023-10-06T17:44:00.519Z,75.50
2023-10-06T17:46:30.214Z,74.58
2023-10-06T17:48:58.256Z,75.07
2023-10-06T17:51:26.665Z,75.38
2023-10-06T17:53:54.650Z,74.92
2023-10-06T17:56:22.584Z,75.24
2023-10-06T17:58:51.314Z,75.33
2023-10-06T18:01:20.160Z,75.91
2023-10-06T18:03:49.922Z,76.16
2023-10-06T18:06:18.916Z,75.82
2023-10-06T18:08:47.020Z,76.27
2023-10-06T18:11:15.373Z,75.92
2023-10-06T18:13:43.825Z,76.44
2023-10-06T18:16:12.094Z,75.37
2023-10-06T18:18:41.617Z,75.21
2023-10-06T18:21:10.946Z,75.30
2023-10-06T18:23:38.766Z,76.40
2023-10-06T18:26:12.260Z,76.92
2023-10-06T18:28:40.803Z,76.42
2023-10-06T18:31:09.085Z,76.54
2023-10-06T18:33:38.010Z,76.54
2023-10-06T18:36:10.149Z,76.30
2023-10-06T18:38:39.732Z,75.83
2023-10-06T18:41:08.932Z,75.95
2023-10-06T18:43:37.046Z,75.66
2023-10-06T18:46:06.976Z,75.76
2023-10-06T18:48:34.961Z,76.09
2023-10-06T18:51:04.926Z,76.19
2023-10-06T18:53:33.967Z,75.94
2023-10-06T18:56:04.588Z,76.83
2023-10-06T18:58:33.344Z,77.02
2023-10-06T19:01:01.611Z,76.16
2023-10-06T19:03:29.622Z,76.76
2023-10-06T19:06:04.038Z,77.07
2023-10-06T19:08:34.697Z,77.18
2023-10-06T19:11:10.606Z,77.57
2023-10-06T19:13:39.164Z,77.15
2023-10-06T19:16:11.024Z,78.02
2023-10-06T19:18:40.949Z,78.01
2023-10-06T19:21:09.546Z,77.44
2023-10-06T19:23:38.672Z,78.23
2023-10-06T19:26:10.377Z,78.61
2023-10-06T19:28:38.318Z,78.15
2023-10-06T19:31:06.628Z,78.00
2023-10-06T19:33:35.003Z,77.98
2023-10-06T19:36:06.604Z,78.81
2023-10-06T19:38:35.224Z,79.06
2023-10-06T19:41:04.339Z,78.33
2023-10-06T19:43:35.686Z,79.11
2023-10-06T19:46:05.963Z,78.18
2023-10-06T19:48:33.949Z,78.82
2023-10-06T19:51:04.361Z,78.96
2023-10-06T19:53:32.216Z,79.33
2023-10-06T19:56:00.166Z,79.31
2023-10-06T19:58:28.984Z,79.21
2023-10-06T20:00:59.171Z,79.03
2023-10-06T20:03:27.669Z,80.04
2023-10-06T20:05:57.642Z,79.97
2023-10-06T20:08:25.781Z,80.01
2023-10-06T20:10:55.318Z,79.76
2023-10-06T20:13:24.940Z,80.00
2023-10-06T20:15:53.156Z,80.51
2023-10-06T20:18:22.705Z,80.99
2023-10-06T20:20:53.339Z,80.88
2023-10-06T20:23:21.898Z,80.30
2023-10-06T20:25:56.497Z,80.34
2023-10-06T20:28:27.684Z,81.27
2023-10-06T20:30:58.036Z,81.20
2023-10-06T20:33:27.703Z,81.70
2023-10-06T20:35:55.774Z,81.35
2023-10-06T20:38:23.886Z,81.40
2023-10-06T20:40:52.149Z,81.08
2023-10-06T20:43:20.425Z,81.29
2023-10-06T20:45:49.152Z,81.55
2023-10-06T20:48:17.267Z,81.96
2023-10-06T20:50:46.573Z,82.08
2023-10-06T20:53:14.689Z,83.40
2023-10-06T20:55:45.698Z,82.35
2023-10-06T20:58:15.882Z,81.92
2023-10-06T21:00:44.367Z,81.92
2023-10-06T21:03:15.048Z,82.31
2023-10-06T21:05:43.439Z,82.66
2023-10-06T21:08:15.339Z,82.43
2023-10-06T21:10:43.585Z,82.50
2023-10-06T21:13:12.284Z,82.77
2023-10-06T21:15:43.304Z,82.32
2023-10-06T21:18:13.194Z,83.16
2023-10-06T21:20:41.374Z,83.60
2023-10-06T21:23:09.642Z,83.34
2023-10-06T21:25:39.955Z,83.43
2023-10-06T21:28:07.960Z,83.48
2023-10-06T21:30:36.281Z,83.57
2023-10-06T21:33:04.545Z,82.97
2023-10-06T21:35:32.799Z,84.08
2023-10-06T21:38:00.850Z,83.68
2023-10-06T21:40:29.072Z,84.02
2023-10-06T21:42:58.797Z,84.53
2023-10-06T21:45:26.833Z,83.88
2023-10-06T21:47:55.992Z,84.28
2023-10-06T21:50:25.237Z,84.51
2023-10-06T21:52:53.325Z,85.08
2023-10-06T21:55:21.364Z,84.94
2023-10-06T21:57:49.233Z,85.00
2023-10-06T22:00:27.094Z,85.36
2023-10-06T22:02:56.141Z,85.33
2023-10-06T22:05:24.578Z,84.66
2023-10-06T22:07:52.808Z,85.46
2023-10-06T22:10:21.005Z,84.90
2023-10-06T22:12:49.926Z,85.50
2023-10-06T22:15:19.255Z,85.84
2023-10-06T22:17:48.175Z,86.30
2023-10-06T22:20:16.371Z,86.54
2023-10-06T22:22:44.297Z,85.79
2023-10-06T22:25:12.876Z,86.50
2023-10-06T22:27:41.757Z,86.39
2023-10-06T22:30:12.531Z,86.68
2023-10-06T22:32:42.550Z,86.99
2023-10-06T22:35:11.938Z,87.92
2023-10-06T22:37:39.960Z,87.22
2023-10-06T22:40:17.571Z,87.39
2023-10-06T22:42:48.832Z,87.55
2023-10-06T22:45:17.360Z,87.47
2023-10-06T22:47:49.371Z,86.74
2023-10-06T22:50:20.145Z,86.92
2023-10-06T22:52:50.616Z,86.71
2023-10-06T22:55:19.968Z,87.16
2023-10-06T22:57:49.911Z,87.86
2023-10-06T23:00:19.083Z,87.84
2023-10-06T23:02:49.532Z,87.92
2023-10-06T23:05:17.597Z,88.50
2023-10-06T23:07:47.915Z,89.03
2023-10-06T23:10:17.298Z,88.87
2023-10-06T23:12:48.947Z,89.11
2023-10-06T23:15:20.904Z,89.22
2023-10-06T23:17:51.524Z,89.12
2023-10-06T23:20:29.474Z,88.64
2023-10-06T23:23:00.283Z,89.83
2023-10-06T23:25:37.549Z,89.06
2023-10-06T23:28:08.117Z,90.18
2023-10-06T23:30:37.970Z,89.38
2023-10-06T23:33:07.990Z,89.65
2023-10-06T23:35:36.188Z,90.04
2023-10-06T23:38:07.792Z,89.97
2023-10-06T23:40:39.773Z,89.24
2023-10-06T23:43:09.541Z,89.87
2023-10-06T23:45:38.785Z,90.14
2023-10-06T23:48:17.182Z,89.39
2023-10-06T23:50:53.358Z,90.20
2023-10-06T23:53:28.442Z,90.07
2023-10-06T23:56:02.278Z,89.95
2023-10-06T23:58:35.462Z,89.53
